sim
Sign-in with your pilot id or email,
or register
Callsign
Passwort

Schedule Details

Flight Number: RYR1519 (1)
Departure: Hamburg Airport (EDDH) at 17:10
Arrival: London Stansted Airport (EGSS) at 18:45
Route: Ryanair Passenger Schedule. Enter filed route here before submitting Pirep.

Weather Information
Getting current METAR information for EDDH 161750Z 15004KT 9999 SCT041 M02/M05 Q1020 NOSIG
Getting current METAR information for EGSS 161750Z 28005KT 9999 BKN029 OVC035 07/06 Q1016

Schedule Frequency

Route Map